Time;durP1;ratioP1;P1;durP2;ratioP2;P2;SDS_P1;SDS_P2;PMS_P1;PMS_P2;Temp;Humidity;BMP_temperature;BMP_pressure;BME280_temperature;BME280_humidity;BME280_pressure;Samples;Min_cycle;Max_cycle;Signal;HPM_P1;HPM_P2
2023/12/23 00:00:43;;;;;;;1.37;0.70;;;4.40;99.90;;;-141.84;95.07;65177.19;5050253;28;20219;-57
2023/12/23 00:03:11;;;;;;;2.73;0.50;;;4.40;99.90;;;-141.84;94.97;64387.81;5050637;28;20235;-57
2023/12/23 00:05:39;;;;;;;1.27;0.60;;;4.40;99.90;;;-141.84;93.88;57290.34;5049049;28;20699;-55
2023/12/23 00:08:09;;;;;;;1.50;0.60;;;4.30;99.90;;;-141.84;89.59;37547.75;5050368;28;20205;-55
2023/12/23 00:10:37;;;;;;;0.90;0.50;;;4.40;99.90;;;-141.84;84.78;20425.63;5049992;28;20225;-55
2023/12/23 00:13:05;;;;;;;1.83;0.60;;;4.40;99.90;;;-141.84;84.91;19917.50;5048847;28;20687;-55
2023/12/23 00:15:34;;;;;;;2.23;0.60;;;4.30;99.90;;;-141.84;82.54;19013.16;5049530;28;20783;-53
2023/12/23 00:18:02;;;;;;;1.47;0.80;;;4.40;99.90;;;-141.84;81.85;18818.09;5050177;28;20227;-54
2023/12/23 00:20:32;;;;;;;2.80;0.70;;;4.30;99.90;;;-141.84;82.09;18903.44;5050207;28;20200;-51
2023/12/23 00:23:00;;;;;;;4.27;0.77;;;4.30;99.90;;;-141.84;81.27;18767.31;5050666;28;20196;-53
2023/12/23 00:25:30;;;;;;;2.63;1.33;;;4.30;99.90;;;-141.84;79.39;18594.63;5049888;28;20354;-51
2023/12/23 00:27:58;;;;;;;1.60;0.70;;;4.40;99.90;;;-141.84;80.05;18627.13;5041710;28;20338;-54
2023/12/23 00:30:26;;;;;;;3.03;0.80;;;4.30;99.90;;;-141.84;79.07;18501.16;5049428;28;20220;-53
2023/12/23 00:32:55;;;;;;;1.30;0.60;;;4.40;99.90;;;-141.84;78.87;18527.56;5049859;28;20233;-53
2023/12/23 00:35:23;;;;;;;2.60;0.63;;;4.30;99.90;;;-141.84;79.56;18572.25;5049322;28;20234;-54
2023/12/23 00:37:51;;;;;;;2.00;0.70;;;4.40;99.90;;;-141.84;78.53;18462.56;5049166;28;20303;-54
2023/12/23 00:40:20;;;;;;;2.23;0.60;;;4.30;99.90;;;-141.84;78.21;18493.03;5049382;28;20268;-56
2023/12/23 00:42:50;;;;;;;2.47;0.80;;;4.40;99.90;;;-141.84;79.00;18558.03;5049492;28;20237;-58
2023/12/23 00:45:18;;;;;;;2.83;0.70;;;4.40;99.90;;;-141.84;78.13;18517.41;5049244;28;20234;-57
2023/12/23 00:47:46;;;;;;;5.20;1.00;;;4.50;99.90;;;-141.84;78.88;18566.16;5049531;28;20713;-57
2023/12/23 00:50:15;;;;;;;2.23;0.67;;;4.50;99.90;;;-141.84;80.88;18738.88;5048742;28;20204;-58
2023/12/23 00:52:43;;;;;;;2.00;0.90;;;4.50;99.90;;;-141.84;81.31;18675.88;5049589;28;20253;-57
2023/12/23 00:55:12;;;;;;;2.30;0.70;;;4.20;99.90;;;-141.84;84.57;19246.84;5048316;28;20258;-58
2023/12/23 00:57:40;;;;;;;3.83;0.63;;;3.80;99.90;;;-141.84;88.71;23522.63;5048109;28;20251;-55
2023/12/23 01:00:11;;;;;;;2.27;0.60;;;3.30;99.90;;;-141.84;91.71;36647.53;5041631;28;20886;-51
2023/12/23 01:02:39;;;;;;;2.07;1.00;;;3.10;99.90;;;-141.84;94.38;53090.44;5043686;28;20201;-58
2023/12/23 01:05:09;;;;;;;2.73;0.73;;;2.80;99.90;;;-141.84;96.00;62283.53;5047096;28;20300;-54
2023/12/23 01:07:38;;;;;;;3.90;0.90;;;2.70;99.90;;;-141.84;96.59;66756.44;5049043;28;20663;-53
2023/12/23 01:10:08;;;;;;;2.60;0.87;;;2.70;99.90;;;-141.84;92.66;48632.88;5049615;28;20232;-50
2023/12/23 01:12:36;;;;;;;3.63;0.67;;;2.70;99.90;;;-141.84;89.93;30622.66;5049450;28;20264;-53
2023/12/23 01:15:09;;;;;;;4.53;0.80;;;2.70;99.90;;;-141.84;89.39;27348.97;5048976;28;20719;-51
2023/12/23 01:17:38;;;;;;;3.23;0.60;;;2.80;99.90;;;-141.84;89.98;29104.66;5049756;28;20186;-53
2023/12/23 01:20:08;;;;;;;3.27;0.90;;;2.90;99.90;;;-141.84;90.76;33026.19;5049385;28;20668;-49
2023/12/23 01:22:37;;;;;;;2.57;1.00;;;3.00;99.90;;;-141.84;93.18;46536.97;5049283;28;20308;-56
2023/12/23 01:25:06;;;;;;;1.80;0.70;;;2.90;99.90;;;-141.84;89.59;27570.94;5051318;28;20223;-53
2023/12/23 01:27:34;;;;;;;0.93;0.80;;;2.80;99.90;;;-141.84;88.52;24236.72;5053191;28;20235;-54
2023/12/23 01:30:03;;;;;;;3.70;0.90;;;2.80;99.90;;;-141.84;88.81;24381.19;5053390;28;20279;-55
2023/12/23 01:32:31;;;;;;;2.23;0.60;;;2.90;99.90;;;-141.84;91.09;34494.72;5052939;28;20248;-59
2023/12/23 01:35:01;;;;;;;2.70;1.07;;;2.80;99.90;;;-141.84;92.90;45489.41;5052303;28;20244;-57
2023/12/23 01:37:29;;;;;;;3.73;0.90;;;2.80;99.90;;;-141.84;95.69;61494.72;5052890;28;20304;-53
2023/12/23 01:39:57;;;;;;;3.40;1.10;;;2.90;99.90;;;-141.84;97.34;67809.63;5052786;28;20314;-54
2023/12/23 01:42:26;;;;;;;3.13;0.87;;;2.80;99.90;;;-141.84;95.70;63598.59;5049826;28;20223;-55
2023/12/23 01:44:55;;;;;;;3.37;0.70;;;3.00;99.90;;;-141.84;95.44;62809.50;5052593;28;20227;-54
2023/12/23 01:47:23;;;;;;;6.43;1.30;;;3.00;99.90;;;-141.84;92.60;48894.97;5053526;28;20275;-56
2023/12/23 01:49:52;;;;;;;3.37;1.03;;;3.10;99.90;;;-141.84;90.29;35847.47;5047605;28;20230;-55
2023/12/23 01:52:21;;;;;;;3.03;0.90;;;3.20;99.90;;;-141.84;85.29;20171.56;5050356;28;20282;-54
2023/12/23 01:54:50;;;;;;;1.80;0.70;;;3.30;99.90;;;-141.84;84.33;19374.88;5044259;28;20319;-54
2023/12/23 01:57:19;;;;;;;3.37;1.00;;;3.30;99.90;;;-141.84;82.40;18761.22;5052120;28;20226;-56
2023/12/23 01:59:47;;;;;;;2.60;0.70;;;3.30;99.90;;;-141.84;83.59;18982.69;5051532;28;20207;-55
2023/12/23 02:02:18;;;;;;;1.77;0.80;;;3.20;99.90;;;-141.84;84.21;19187.91;5050630;28;20306;-54
2023/12/23 02:04:47;;;;;;;4.33;1.10;;;3.10;99.90;;;-141.84;87.49;21812.16;5048871;28;20817;-54
2023/12/23 02:07:16;;;;;;;5.40;1.10;;;3.00;99.90;;;-141.84;93.00;42871.75;5047467;28;20248;-56
2023/12/23 02:09:45;;;;;;;2.30;0.80;;;2.90;99.90;;;-141.84;98.87;72816.03;5050464;28;20330;-56
2023/12/23 02:12:27;;;;;;;3.10;1.10;;;2.70;99.90;;;-141.84;100.00;90785.09;5048870;28;20229;-56
2023/12/23 02:15:04;;;;;;;3.37;1.10;;;2.50;99.90;;;-141.84;100.00;97146.31;5050123;28;20225;-54
2023/12/23 02:17:33;;;;;;;4.30;1.10;;;2.40;99.90;;;-141.84;100.00;101658.25;5049553;28;20185;-55
2023/12/23 02:20:04;;;;;;;6.07;1.10;;;2.30;99.90;;;-141.84;100.00;104846.16;5053096;28;20189;-57
2023/12/23 02:22:35;;;;;;;4.37;1.03;;;2.30;99.90;;;-141.84;100.00;108302.56;5052288;28;20221;-54
2023/12/23 02:25:03;;;;;;;2.73;1.00;;;2.20;99.90;;;-141.84;100.00;108302.56;5052777;28;20244;-56
2023/12/23 02:27:38;;;;;;;4.07;0.90;;;2.20;99.90;;;-141.84;100.00;106175.19;5052055;28;20596;-56
2023/12/23 02:30:12;;;;;;;2.27;1.27;;;2.20;99.90;;;-141.84;100.00;103783.25;5044423;28;20266;-56
2023/12/23 02:32:44;;;;;;;3.87;1.03;;;2.10;99.90;;;-141.84;100.00;102189.38;5052630;28;20189;-58
2023/12/23 02:35:13;;;;;;;3.67;1.23;;;2.10;99.90;;;-141.84;100.00;96615.84;5043835;28;20855;-55
2023/12/23 02:37:43;;;;;;;5.87;1.20;;;2.30;99.90;;;-141.84;100.00;93964.47;5050841;28;20218;-56
2023/12/23 02:40:12;;;;;;;6.13;1.50;;;2.20;99.90;;;-141.84;100.00;95289.94;5052179;28;20343;-57
2023/12/23 02:42:40;;;;;;;6.60;1.10;;;2.40;99.90;;;-141.84;100.00;92904.41;5051997;28;20635;-52
2023/12/23 02:45:09;;;;;;;4.00;1.20;;;2.50;99.90;;;-141.84;100.00;91844.63;5051856;28;20259;-52
2023/12/23 02:47:37;;;;;;;2.63;1.17;;;2.40;99.90;;;-141.84;100.00;87608.25;5051943;28;20272;-50
2023/12/23 02:50:09;;;;;;;3.60;1.40;;;2.50;99.90;;;-141.84;96.42;70443.78;5052222;28;20198;-55
2023/12/23 02:52:37;;;;;;;2.93;1.07;;;2.70;99.90;;;-141.84;90.03;39442.81;5051791;28;20225;-54
2023/12/23 02:55:08;;;;;;;3.80;1.03;;;2.80;99.90;;;-141.84;81.69;18653.53;5051746;28;20226;-54
2023/12/23 02:57:36;;;;;;;2.40;0.90;;;3.00;99.90;;;-141.84;80.07;18462.56;5052158;28;20436;-55
2023/12/23 03:00:06;;;;;;;4.33;1.20;;;3.00;99.90;;;-141.84;79.79;18470.69;5051350;28;20242;-56
2023/12/23 03:02:34;;;;;;;3.37;1.20;;;3.10;99.90;;;-141.84;81.22;18549.91;5052110;28;20225;-55
2023/12/23 03:05:02;;;;;;;4.43;1.30;;;3.00;99.90;;;-141.84;81.43;18619.00;5048887;28;20530;-51
2023/12/23 03:07:30;;;;;;;4.60;1.07;;;3.00;99.90;;;-141.84;83.27;18872.97;5050122;28;20225;-55
2023/12/23 03:09:59;;;;;;;2.27;0.80;;;3.00;99.90;;;-141.84;84.12;19053.81;5051665;28;20240;-54
2023/12/23 03:12:28;;;;;;;6.30;1.10;;;2.90;99.90;;;-141.84;83.02;18812.00;5051907;28;20314;-56
2023/12/23 03:14:56;;;;;;;4.33;1.00;;;2.90;99.90;;;-141.84;85.61;19746.78;5050920;28;20230;-57
2023/12/23 03:17:27;;;;;;;3.43;0.93;;;2.90;99.90;;;-141.84;86.65;20702.09;5051745;28;20189;-54
2023/12/23 03:19:58;;;;;;;3.93;1.00;;;2.90;99.90;;;-141.84;86.87;21206.25;5051857;28;20210;-60
2023/12/23 03:22:26;;;;;;;3.67;1.57;;;2.90;99.90;;;-141.84;84.92;19547.59;5051025;28;20237;-55
2023/12/23 03:24:54;;;;;;;2.80;0.90;;;2.90;99.90;;;-141.84;85.50;19935.78;5049626;28;20820;-57
2023/12/23 03:27:23;;;;;;;4.70;0.90;;;3.00;99.90;;;-141.84;87.10;21267.25;5050086;28;20301;-57
2023/12/23 03:29:52;;;;;;;2.60;0.80;;;3.00;99.90;;;-141.84;87.77;22513.75;5049342;28;20787;-58
2023/12/23 03:32:21;;;;;;;2.90;0.90;;;2.90;99.90;;;-141.84;89.68;26768.66;5051483;28;20668;-57
2023/12/23 03:34:49;;;;;;;2.10;0.90;;;2.90;99.90;;;-141.84;91.05;34060.22;5050361;28;20880;-55
2023/12/23 03:37:17;;;;;;;3.63;1.20;;;2.90;99.90;;;-141.84;93.22;47846.78;5042766;28;20214;-57
2023/12/23 03:39:46;;;;;;;1.27;0.73;;;2.80;99.90;;;-141.84;94.88;56765.13;5051212;28;20221;-57
2023/12/23 03:42:14;;;;;;;2.97;0.90;;;2.80;99.90;;;-141.84;96.41;64914.06;5050832;28;20328;-54
2023/12/23 03:44:42;;;;;;;4.07;1.00;;;2.80;99.90;;;-141.84;96.45;65440.38;5050633;28;20221;-56
2023/12/23 03:47:12;;;;;;;5.40;1.20;;;2.80;99.90;;;-141.84;96.75;67283.00;5051697;28;20229;-54
2023/12/23 03:49:40;;;;;;;3.80;1.10;;;2.80;99.90;;;-141.84;97.70;70707.31;5050520;28;20263;-55
2023/12/23 03:52:09;;;;;;;2.97;1.07;;;2.70;99.90;;;-141.84;96.31;65440.38;5051144;28;20313;-52
2023/12/23 03:54:37;;;;;;;6.00;1.20;;;2.80;99.90;;;-141.84;96.26;64387.81;5051062;28;20259;-56
2023/12/23 03:57:05;;;;;;;6.03;1.47;;;2.70;99.90;;;-141.84;96.57;67019.72;5051105;28;20223;-56
2023/12/23 03:59:34;;;;;;;3.13;1.27;;;2.70;99.90;;;-141.84;95.09;60968.94;5050285;28;20259;-53
2023/12/23 04:02:03;;;;;;;4.93;1.23;;;2.70;99.90;;;-141.84;95.19;60443.22;5051750;28;20247;-55
2023/12/23 04:04:33;;;;;;;2.33;1.43;;;2.70;99.90;;;-141.84;95.51;61231.81;5050716;28;20224;-54
2023/12/23 04:07:02;;;;;;;3.37;1.10;;;2.80;99.90;;;-141.84;95.97;63861.66;5050129;28;20221;-55
2023/12/23 04:09:34;;;;;;;4.40;1.00;;;2.70;99.90;;;-141.84;97.15;68072.97;5050875;28;20325;-56
2023/12/23 04:12:02;;;;;;;6.33;1.20;;;2.70;99.90;;;-141.84;96.68;68336.31;5043184;28;20308;-59
2023/12/23 04:14:31;;;;;;;2.23;1.20;;;2.70;99.90;;;-141.84;94.69;61494.72;5049761;28;20194;-50
2023/12/23 04:17:00;;;;;;;4.03;1.27;;;2.80;99.90;;;-141.84;90.73;37139.47;5050770;28;20550;-53
2023/12/23 04:19:28;;;;;;;5.07;1.20;;;2.90;99.90;;;-141.84;90.29;32473.59;5050331;28;20218;-53
2023/12/23 04:21:59;;;;;;;5.40;1.20;;;2.90;99.90;;;-141.84;89.05;26709.63;5048526;28;20223;-57
2023/12/23 04:24:27;;;;;;;2.67;1.23;;;3.00;99.90;;;-141.84;90.30;32846.75;5050100;28;20240;-55
2023/12/23 04:26:56;;;;;;;8.97;1.70;;;2.90;99.90;;;-141.84;88.04;25058.81;5048831;28;20407;-53
2023/12/23 04:29:24;;;;;;;2.90;1.30;;;3.10;99.90;;;-141.84;89.09;26335.03;5047843;28;20317;-55
2023/12/23 04:31:52;;;;;;;8.50;1.40;;;3.00;99.90;;;-141.84;91.09;37004.72;5049979;28;20236;-52
2023/12/23 04:34:21;;;;;;;4.10;1.10;;;3.00;99.90;;;-141.84;89.78;29467.28;5049415;28;20238;-56
2023/12/23 04:36:49;;;;;;;3.17;1.20;;;3.00;99.90;;;-141.84;90.14;32489.91;5047872;28;20220;-53
2023/12/23 04:39:19;;;;;;;2.67;1.20;;;3.00;99.90;;;-141.84;91.51;38629.94;5048457;28;20232;-53
2023/12/23 04:41:48;;;;;;;1.83;1.10;;;3.00;99.90;;;-141.84;92.88;47060.84;5045215;28;20296;-57
2023/12/23 04:44:19;;;;;;;8.27;1.80;;;3.00;99.90;;;-141.84;93.31;51516.59;5047141;28;20800;-55
2023/12/23 04:46:49;;;;;;;4.27;1.30;;;3.10;99.90;;;-141.84;93.97;54664.88;5049765;28;20639;-54
2023/12/23 04:49:18;;;;;;;7.40;1.07;;;3.10;99.90;;;-141.84;92.88;49681.28;5049350;28;20223;-55
2023/12/23 04:51:46;;;;;;;4.53;1.13;;;3.00;99.90;;;-141.84;93.74;51516.59;5041139;28;20295;-55
2023/12/23 04:54:16;;;;;;;3.33;1.70;;;3.00;99.90;;;-141.84;94.08;55452.34;5049726;28;20233;-51
2023/12/23 04:56:46;;;;;;;4.50;1.50;;;3.00;99.90;;;-141.84;94.34;56239.94;5049509;28;20253;-61
2023/12/23 04:59:14;;;;;;;7.97;1.43;;;3.00;99.90;;;-141.84;95.91;62809.50;5049392;28;20280;-55
2023/12/23 05:01:43;;;;;;;5.90;1.40;;;3.00;99.90;;;-141.84;95.83;63335.53;5049586;28;20309;-57
2023/12/23 05:04:11;;;;;;;5.53;1.47;;;3.00;99.90;;;-141.84;96.33;66493.19;5049452;28;20762;-55
2023/12/23 05:06:40;;;;;;;3.97;1.50;;;3.00;99.90;;;-141.84;95.69;64387.81;5041089;28;20281;-53
2023/12/23 05:09:08;;;;;;;3.87;1.40;;;3.00;99.90;;;-141.84;94.57;57815.66;5049338;28;20232;-51
2023/12/23 05:11:36;;;;;;;5.60;1.30;;;3.00;99.90;;;-141.84;94.45;56502.53;5049489;28;20204;-53
2023/12/23 05:14:06;;;;;;;5.93;1.20;;;3.00;99.90;;;-141.84;94.44;57553.00;5049959;28;20200;-52
2023/12/23 05:16:34;;;;;;;3.13;1.27;;;3.00;99.90;;;-141.84;93.37;54140.00;5049104;28;20300;-53
2023/12/23 05:19:03;;;;;;;5.00;1.70;;;3.00;99.90;;;-141.84;91.87;42871.75;5049336;28;20236;-56
2023/12/23 05:21:31;;;;;;;3.73;1.50;;;3.00;99.90;;;-141.84;91.60;40319.19;5049495;28;20234;-56
2023/12/23 05:23:59;;;;;;;3.00;1.50;;;3.00;99.90;;;-141.84;88.82;27184.03;5049614;28;20310;-55
2023/12/23 05:26:28;;;;;;;4.03;1.47;;;3.10;99.90;;;-141.84;87.42;23294.78;5049481;28;20203;-55
2023/12/23 05:28:56;;;;;;;6.67;1.50;;;3.10;99.90;;;-141.84;85.58;20773.22;5049362;28;20267;-55
2023/12/23 05:31:26;;;;;;;4.83;1.20;;;3.10;99.90;;;-141.84;84.64;19622.81;5049042;28;20722;-53
2023/12/23 05:33:56;;;;;;;4.30;1.50;;;3.20;99.90;;;-141.84;83.42;19220.44;5048738;28;20244;-55
2023/12/23 05:36:24;;;;;;;2.97;1.30;;;3.30;99.90;;;-141.84;83.50;19088.34;5048927;28;20855;-52
2023/12/23 05:38:52;;;;;;;4.43;1.40;;;3.30;99.90;;;-141.84;83.64;19210.28;5049233;28;20224;-55
2023/12/23 05:41:21;;;;;;;3.10;1.00;;;3.30;99.90;;;-141.84;83.93;19322.03;5049410;28;20231;-56
2023/12/23 05:43:49;;;;;;;6.20;1.40;;;3.30;99.90;;;-141.84;84.34;19671.56;5048699;28;20219;-52
2023/12/23 05:46:18;;;;;;;2.90;1.27;;;3.30;99.90;;;-141.84;84.62;19673.59;5048768;28;20224;-56
2023/12/23 05:48:47;;;;;;;3.17;1.50;;;3.40;99.90;;;-141.84;84.63;19691.91;5049219;28;20326;-55
2023/12/23 05:51:16;;;;;;;5.27;1.80;;;3.50;99.90;;;-141.84;83.49;19358.63;5040749;28;20228;-52
2023/12/23 05:53:44;;;;;;;3.70;1.03;;;3.60;99.90;;;-141.84;82.88;19114.78;5047666;28;20297;-55
2023/12/23 05:56:12;;;;;;;5.03;1.33;;;3.60;99.90;;;-141.84;83.81;19281.41;5049380;28;20233;-55
2023/12/23 05:58:41;;;;;;;4.77;1.20;;;3.70;99.90;;;-141.84;85.50;20350.41;5048718;28;20678;-54
2023/12/23 06:01:09;;;;;;;3.40;1.03;;;3.70;99.90;;;-141.84;85.38;20598.41;5048869;28;20244;-55
2023/12/23 06:03:37;;;;;;;4.17;0.87;;;3.70;99.90;;;-141.84;84.03;19657.34;5049056;28;20229;-55
2023/12/23 06:06:07;;;;;;;4.23;1.17;;;3.80;99.90;;;-141.84;84.69;19866.69;5049108;28;20224;-55
2023/12/23 06:08:35;;;;;;;6.97;1.37;;;3.80;99.90;;;-141.84;87.30;22804.59;5048959;28;20199;-56
2023/12/23 06:11:06;;;;;;;6.23;1.37;;;3.80;99.90;;;-141.84;87.20;22989.69;5049738;28;20208;-51
2023/12/23 06:13:34;;;;;;;5.80;1.27;;;3.80;99.90;;;-141.84;87.93;24763.75;5052169;28;20231;-53
2023/12/23 06:16:06;;;;;;;4.27;1.30;;;3.80;99.90;;;-141.84;89.05;27882.50;5052191;28;20318;-54
2023/12/23 06:18:35;;;;;;;4.67;1.23;;;3.80;99.90;;;-141.84;91.78;42871.75;5052707;28;20630;-52
2023/12/23 06:21:04;;;;;;;5.27;2.00;;;3.80;99.90;;;-141.84;94.60;58603.75;5052412;28;20339;-56
2023/12/23 06:23:33;;;;;;;5.30;1.33;;;3.80;99.90;;;-141.84;96.16;65703.56;5052477;28;20736;-54
2023/12/23 06:26:01;;;;;;;6.50;1.37;;;3.70;99.90;;;-141.84;98.25;74134.56;5053096;28;20201;-53
2023/12/23 06:28:30;;;;;;;5.17;1.00;;;3.70;99.90;;;-141.84;100.00;83376.34;5051738;28;20627;-53
2023/12/23 06:30:58;;;;;;;6.40;1.20;;;3.60;99.90;;;-141.84;100.00;88402.22;5052063;28;20664;-58
2023/12/23 06:33:26;;;;;;;4.77;1.07;;;3.50;99.90;;;-141.84;100.00;94759.69;5052094;28;20234;-55
2023/12/23 06:35:55;;;;;;;5.27;1.73;;;3.50;99.90;;;-141.84;100.00;99268.97;5052143;28;20230;-55
2023/12/23 06:38:23;;;;;;;6.37;1.23;;;3.40;99.90;;;-141.84;100.00;103783.25;5052425;28;20247;-55
2023/12/23 06:40:53;;;;;;;4.60;1.20;;;3.40;99.90;;;-141.84;100.00;102720.59;5051808;28;20221;-55
2023/12/23 06:43:21;;;;;;;4.17;1.07;;;3.40;99.90;;;-141.84;100.00;106175.19;5051123;28;20231;-55
2023/12/23 06:46:11;;;;;;;4.70;1.30;;;3.30;99.90;;;-141.84;100.00;108834.56;5048284;28;20254;-55
2023/12/23 06:48:39;;;;;;;2.40;1.10;;;3.30;99.90;;;-141.84;100.00;112028.13;5051027;28;20229;-55
2023/12/23 06:51:08;;;;;;;2.93;1.10;;;3.30;99.90;;;-141.84;100.00;112560.63;5043552;28;20234;-57
2023/12/23 06:53:36;;;;;;;2.87;1.00;;;3.20;99.90;;;-141.84;100.00;115757.06;5052076;28;20295;-55
2023/12/23 06:56:08;;;;;;;3.30;1.33;;;3.30;99.90;;;-141.84;100.00;116290.06;5052123;28;20686;-55
2023/12/23 06:58:36;;;;;;;4.23;1.13;;;3.20;99.90;;;-141.84;100.00;116823.13;5051148;28;20231;-55
2023/12/23 07:01:05;;;;;;;4.53;1.10;;;3.20;99.90;;;-141.84;100.00;116823.13;5051295;28;20304;-56
2023/12/23 07:03:33;;;;;;;3.53;1.33;;;3.20;99.90;;;-141.84;100.00;117622.84;5051126;28;20723;-55
2023/12/23 07:06:03;;;;;;;5.47;1.27;;;3.30;99.90;;;-141.84;100.00;118422.72;5046229;28;20228;-54
2023/12/23 07:08:31;;;;;;;3.23;1.00;;;3.20;99.90;;;-141.84;100.00;118956.03;5049776;28;20609;-55
2023/12/23 07:10:59;;;;;;;2.40;1.10;;;3.10;99.90;;;-141.84;100.00;119222.75;5050939;28;20289;-55
2023/12/23 07:13:29;;;;;;;3.73;2.77;;;3.10;99.90;;;-141.84;100.00;119224.81;5049772;28;20221;-56
2023/12/23 07:15:58;;;;;;;5.00;1.57;;;3.10;99.90;;;-141.84;100.00;119224.81;5047449;28;20243;-56
2023/12/23 07:18:26;;;;;;;4.37;2.10;;;3.20;99.90;;;-141.84;100.00;119224.81;5050721;28;20891;-57
2023/12/23 07:20:55;;;;;;;4.03;1.93;;;3.20;99.90;;;-141.84;100.00;119224.81;5050193;28;20229;-56
2023/12/23 07:23:23;;;;;;;5.03;2.30;;;3.10;99.90;;;-141.84;100.00;119222.75;5043075;28;20236;-54
2023/12/23 07:25:51;;;;;;;3.63;2.30;;;3.10;99.90;;;-141.84;100.00;119222.75;5051309;28;20238;-56
2023/12/23 07:28:20;;;;;;;4.90;2.60;;;3.10;99.90;;;-141.84;100.00;119224.81;5050949;28;20283;-55
2023/12/23 07:30:49;;;;;;;5.27;2.43;;;3.10;99.90;;;-141.84;100.00;119224.81;5044769;28;20830;-51
2023/12/23 07:33:17;;;;;;;5.37;2.63;;;3.10;99.90;;;-141.84;100.00;119224.81;5047388;28;20637;-59
2023/12/23 07:35:45;;;;;;;3.90;2.13;;;3.10;99.90;;;-141.84;100.00;119224.81;5046881;28;20638;-57
2023/12/23 07:38:14;;;;;;;4.83;1.63;;;3.10;99.90;;;-141.84;100.00;119224.81;5047696;28;20205;-55
2023/12/23 07:40:42;;;;;;;3.40;1.60;;;3.10;99.90;;;-141.84;100.00;119224.81;5047848;28;20213;-54
2023/12/23 07:43:10;;;;;;;6.67;1.87;;;3.10;99.90;;;-141.84;100.00;119224.81;5042103;28;20227;-55
2023/12/23 07:45:39;;;;;;;4.10;1.30;;;3.10;99.90;;;-141.84;100.00;119224.81;5044866;28;20258;-55
2023/12/23 07:48:09;;;;;;;3.57;1.40;;;3.10;99.90;;;-141.84;100.00;119224.81;5048508;28;20323;-61
2023/12/23 07:50:37;;;;;;;5.07;1.83;;;3.00;99.90;;;-141.84;100.00;119224.81;5042293;28;20310;-57
2023/12/23 07:53:05;;;;;;;3.27;1.57;;;3.10;99.90;;;-141.84;100.00;119224.81;5048977;28;20264;-56
2023/12/23 07:55:36;;;;;;;5.97;1.80;;;3.10;99.90;;;-141.84;100.00;119224.81;5044919;28;20217;-56
2023/12/23 07:58:04;;;;;;;2.50;1.50;;;3.10;99.90;;;-141.84;100.00;119224.81;5044742;28;20265;-53
2023/12/23 08:00:33;;;;;;;5.97;2.37;;;3.10;99.90;;;-141.84;100.00;119224.81;5046052;28;20282;-56
2023/12/23 08:03:01;;;;;;;3.83;2.90;;;3.10;99.90;;;-141.84;100.00;119224.81;5044219;28;20236;-56
2023/12/23 08:05:34;;;;;;;3.97;3.17;;;3.10;99.90;;;-141.84;100.00;119224.81;5043417;28;20602;-54
2023/12/23 08:08:03;;;;;;;6.33;4.03;;;3.20;99.90;;;-141.84;100.00;119224.81;5043514;28;20209;-60
2023/12/23 08:10:31;;;;;;;6.10;3.90;;;3.20;99.90;;;-141.84;100.00;119224.81;5044048;28;20213;-55
2023/12/23 08:13:00;;;;;;;6.77;4.37;;;3.20;99.90;;;-141.84;100.00;119224.81;5044432;28;20422;-55
2023/12/23 08:15:28;;;;;;;5.27;4.40;;;3.20;99.90;;;-141.84;100.00;119224.81;5042236;28;20816;-56
2023/12/23 08:17:56;;;;;;;6.67;4.20;;;3.20;99.90;;;-141.84;100.00;119224.81;5044857;28;20323;-55
2023/12/23 08:20:24;;;;;;;5.70;3.80;;;3.20;99.90;;;-141.84;100.00;119224.81;5040922;28;20189;-55
2023/12/23 08:22:54;;;;;;;6.47;4.60;;;3.20;99.90;;;-141.84;100.00;119224.81;5042030;28;20757;-55
2023/12/23 08:25:23;;;;;;;5.20;4.70;;;3.30;99.90;;;-141.84;100.00;119224.81;5043691;28;20847;-55
2023/12/23 08:27:51;;;;;;;5.63;3.80;;;3.30;99.90;;;-141.84;100.00;119224.81;5043011;28;20221;-56
2023/12/23 08:30:19;;;;;;;5.90;3.50;;;3.40;99.90;;;-141.84;100.00;119224.81;5043372;28;20246;-53
2023/12/23 08:32:48;;;;;;;3.43;3.13;;;3.40;99.90;;;-141.84;100.00;119224.81;5041660;28;20242;-53
2023/12/23 08:35:16;;;;;;;4.90;2.60;;;3.50;99.90;;;-141.84;100.00;119224.81;5041237;28;20652;-56
2023/12/23 08:37:45;;;;;;;3.63;2.70;;;3.50;99.90;;;-141.84;100.00;119224.81;5043944;28;20224;-56
2023/12/23 08:40:15;;;;;;;5.13;2.50;;;3.60;99.90;;;-141.84;100.00;119224.81;5044175;28;20764;-54
2023/12/23 08:42:44;;;;;;;3.23;2.33;;;3.60;99.90;;;-141.84;100.00;119224.81;5042455;28;20625;-56
2023/12/23 08:45:12;;;;;;;4.60;3.00;;;3.60;99.90;;;-141.84;100.00;119224.81;5044508;28;20256;-55
2023/12/23 08:47:40;;;;;;;4.93;3.00;;;3.60;99.90;;;-141.84;100.00;119224.81;5045918;28;20225;-55
2023/12/23 08:50:09;;;;;;;5.47;4.50;;;3.60;99.90;;;-141.84;100.00;119224.81;5037958;28;20278;-53
2023/12/23 08:52:37;;;;;;;3.10;1.63;;;3.70;99.90;;;-141.84;100.00;119224.81;5045723;28;20219;-51
2023/12/23 08:55:07;;;;;;;2.27;1.43;;;3.80;99.90;;;-141.84;100.00;119224.81;5042609;28;20817;-51
2023/12/23 08:57:38;;;;;;;1.80;1.30;;;3.80;99.90;;;-141.84;100.00;119224.81;5042009;28;20227;-56
2023/12/23 09:00:09;;;;;;;2.67;2.00;;;3.80;99.90;;;-141.84;100.00;119224.81;5042936;28;20235;-55
2023/12/23 09:02:37;;;;;;;1.40;1.10;;;3.80;99.90;;;-141.84;100.00;119224.81;5045394;28;20208;-56
2023/12/23 09:05:07;;;;;;;1.60;1.40;;;3.90;99.90;;;-141.84;100.00;119224.81;5045185;28;20652;-56
2023/12/23 09:07:36;;;;;;;1.97;1.10;;;3.80;99.90;;;-141.84;100.00;119224.81;5049174;28;20224;-56
2023/12/23 09:10:06;;;;;;;1.90;1.40;;;3.80;99.90;;;-141.84;100.00;119224.81;5048868;28;20244;-54
2023/12/23 09:12:36;;;;;;;1.47;1.37;;;3.80;99.90;;;-141.84;100.00;119224.81;5049284;28;20329;-53
2023/12/23 09:15:05;;;;;;;1.50;1.30;;;3.90;99.90;;;-141.84;100.00;119224.81;5048733;28;20230;-58
2023/12/23 09:17:33;;;;;;;2.30;1.00;;;3.90;99.90;;;-141.84;100.00;119224.81;5040141;28;20745;-53
2023/12/23 09:20:04;;;;;;;1.07;0.93;;;3.90;99.90;;;-141.84;100.00;119224.81;5044227;28;20533;-51
2023/12/23 09:22:32;;;;;;;1.27;1.17;;;3.90;99.90;;;-141.84;100.00;119224.81;5050365;28;20247;-55
2023/12/23 09:25:00;;;;;;;2.00;1.17;;;3.90;99.90;;;-141.84;100.00;119224.81;5041943;28;20239;-53
2023/12/23 09:27:31;;;;;;;1.40;1.10;;;3.90;99.90;;;-141.84;100.00;119224.81;5040442;28;20235;-54
2023/12/23 09:30:00;;;;;;;1.77;1.43;;;3.90;99.90;;;-141.84;100.00;119224.81;5039594;28;20227;-55
2023/12/23 09:32:28;;;;;;;1.63;1.50;;;3.90;99.90;;;-141.84;100.00;119224.81;5043146;28;20239;-56
2023/12/23 09:34:57;;;;;;;2.40;1.43;;;3.90;99.90;;;-141.84;100.00;119224.81;5043035;28;20731;-54
2023/12/23 09:37:25;;;;;;;1.50;1.23;;;3.90;99.90;;;-141.84;100.00;119224.81;5042257;28;20227;-55
2023/12/23 09:39:54;;;;;;;2.07;1.00;;;3.90;99.90;;;-141.84;100.00;119224.81;5043910;28;20310;-53
2023/12/23 09:42:23;;;;;;;2.27;1.03;;;3.90;99.90;;;-141.84;100.00;119224.81;5041976;28;20276;-55
2023/12/23 09:44:53;;;;;;;1.10;0.90;;;3.90;99.90;;;-141.84;100.00;119224.81;5048846;28;20289;-55
2023/12/23 09:47:22;;;;;;;0.90;0.70;;;3.90;99.90;;;-141.84;100.00;119224.81;5052060;28;20720;-57
2023/12/23 09:49:51;;;;;;;1.20;1.10;;;3.90;99.90;;;-141.84;100.00;119224.81;5051083;28;20220;-53
2023/12/23 09:52:20;;;;;;;1.27;0.80;;;3.90;99.90;;;-141.84;100.00;119224.81;5051325;28;20228;-56
2023/12/23 09:54:54;;;;;;;0.97;0.60;;;4.00;99.90;;;-141.84;100.00;119224.81;5050539;28;20373;-56
2023/12/23 09:57:22;;;;;;;1.13;0.60;;;3.90;99.90;;;-141.84;100.00;119224.81;5050586;28;20258;-56
2023/12/23 09:59:52;;;;;;;0.87;0.80;;;3.90;99.90;;;-141.84;100.00;119224.81;5049247;28;20232;-55
2023/12/23 10:02:21;;;;;;;0.87;0.70;;;3.90;99.90;;;-141.84;100.00;119224.81;5045360;28;20199;-55
2023/12/23 10:04:50;;;;;;;1.00;0.80;;;3.90;99.90;;;-141.84;100.00;119222.75;5052678;28;20228;-54
2023/12/23 10:07:18;;;;;;;0.70;0.70;;;3.70;99.90;;;-141.84;100.00;119222.75;5052973;28;20305;-56
2023/12/23 10:09:50;;;;;;;0.90;0.70;;;3.90;99.90;;;-141.84;100.00;119224.81;5052738;28;20273;-57
2023/12/23 10:12:19;;;;;;;0.80;0.70;;;3.90;99.90;;;-141.84;100.00;119224.81;5044236;28;20296;-56
2023/12/23 10:14:49;;;;;;;0.90;0.80;;;3.90;99.90;;;-141.84;100.00;119224.81;5043188;28;20266;-58